Unalakleet, AK

5:22 AM AKDT on October 17, 2017 (GMT -0800)
Unalakleet

Weather History for PAUN - August, 2013

Change the Weather History Date:

Monday, August 19, 2013

  Actual Average Record
Temperature  
Mean Temperature 55 °F -  
Max Temperature 59 °F 57 °F 70 °F (1975)
Min Temperature 51 °F 44 °F 32 °F (2006)
Degree Days  
Heating Degree Days 10    
Growing Degree Days 5 (Base 50)    
Moisture  
Dew Point 49 °F    
Average Humidity 83    
Maximum Humidity 88    
Minimum Humidity 67    
Precipitation  
Precipitation 0.72 in - - ()
Sea Level Pressure  
Sea Level Pressure 29.57 in    
Wind  
Wind Speed 5 mph (ENE)    
Max Wind Speed 15 mph    
Max Gust Speed 17 mph    
Visibility 8 miles    
Events      
Averages and records for this station are not official NWS values.
T = Trace of Precipitation, MM = Missing Value Source: NWS Daily Summary

Daily Weather History Graph

Daily Weather History Graph

Search for Another Location

Airport or City:

Trip Planner

Search our weather history database for the weather conditions in past years. The results will help you decide how hot, cold, wet, or windy it might be!

Date:

Astronomy

Aug. 19, 2013 Rise Set
Actual Time 6:49 AM AKDT 10:41 PM AKDT
Civil Twilight 5:49 AM AKDT 11:41 PM AKDT
Nautical Twilight 4:05 AM AKDT 1:20 AM AKDT
Astronomical Twilight Sun does not rise Sun does not rise
Moon 9:33 PM AKDT (8/19) 5:13 AM AKDT (8/19)
Length of Visible Light 17h 51m
Length of Day
15h 52m
Waxing Gibbous, 98% of the Moon is Illuminated
Aug 19
Waxing Gibbous
Aug 20
Full
Aug 28
Last Quarter
Sep 5
New
Sep 12
First Quarter

Hourly Weather History & Observations

Time (AKDT) Temp. Dew Point Humidity Pressure Visibility Wind Dir Wind Speed Gust Speed Precip Events Conditions
12:16 AM 53.6 °F 48.2 °F 82% 29.57 in 10.0 mi East 3.5 mph - N/A   Overcast
12:36 AM 53.6 °F 50.0 °F 88% 29.56 in 10.0 mi ESE 5.8 mph - N/A   Overcast
12:56 AM 53.6 °F 48.2 °F 82% 29.56 in 10.0 mi Calm Calm - N/A   Overcast
1:16 AM 53.6 °F 48.2 °F 82% 29.55 in 10.0 mi Calm Calm - N/A   Overcast
1:36 AM 51.8 °F 48.2 °F 88% 29.55 in 10.0 mi East 4.6 mph - N/A   Overcast
1:56 AM 51.8 °F 48.2 °F 88% 29.55 in 10.0 mi East 5.8 mph - 0.01 in   Overcast
2:16 AM 51.8 °F 48.2 °F 88% 29.54 in 10.0 mi East 6.9 mph - N/A   Overcast
2:36 AM 51.8 °F 48.2 °F 88% 29.53 in 10.0 mi East 6.9 mph - N/A   Overcast
2:56 AM 51.8 °F 48.2 °F 88% 29.53 in 10.0 mi SE 6.9 mph - N/A   Overcast
3:16 AM 51.8 °F 48.2 °F 88% 29.53 in 3.0 mi SE 4.6 mph - 0.01 in   Overcast
3:36 AM 51.8 °F 48.2 °F 88% 29.52 in 5.0 mi ESE 6.9 mph - 0.02 in   Overcast
3:56 AM 51.8 °F 48.2 °F 88% 29.52 in 4.0 mi East 6.9 mph - 0.03 in   Overcast
4:16 AM 51.8 °F 48.2 °F 88% 29.51 in 3.0 mi East 5.8 mph - 0.06 in   Overcast
4:36 AM 51.8 °F 48.2 °F 88% 29.52 in 5.0 mi East 4.6 mph - 0.13 in   Overcast
4:56 AM 51.8 °F 48.2 °F 88% 29.52 in 4.0 mi ESE 4.6 mph - 0.21 in   Overcast
5:16 AM 51.8 °F 48.2 °F 88% 29.51 in 4.0 mi Calm Calm - 0.09 in   Overcast
5:36 AM 51.8 °F 48.2 °F 88% 29.51 in 3.0 mi ESE 4.6 mph - 0.15 in   Overcast
5:56 AM 51.8 °F 48.2 °F 88% 29.51 in 3.0 mi East 5.8 mph - 0.17 in   Overcast
6:16 AM 51.8 °F 48.2 °F 88% 29.51 in 3.0 mi ESE 5.8 mph - 0.01 in   Overcast
6:36 AM 51.8 °F 48.2 °F 88% 29.51 in 3.0 mi SE 4.6 mph - 0.07 in   Overcast
6:56 AM 51.8 °F 48.2 °F 88% 29.51 in 7.0 mi SW 9.2 mph - 0.09 in   Overcast
7:16 AM 51.8 °F 48.2 °F 88% 29.51 in 8.0 mi SW 9.2 mph - 0.01 in   Overcast
7:36 AM 51.8 °F 48.2 °F 88% 29.51 in 3.0 mi SE 8.1 mph - 0.04 in   Overcast
7:56 AM 51.8 °F 48.2 °F 88% 29.51 in 5.0 mi SE 5.8 mph - 0.05 in   Overcast
8:16 AM 51.8 °F 48.2 °F 88% 29.51 in 9.0 mi ESE 8.1 mph - 0.02 in   Overcast
8:36 AM 51.8 °F 48.2 °F 88% 29.51 in 10.0 mi SSE 4.6 mph - 0.02 in   Overcast
8:56 AM 51.8 °F 48.2 °F 88% 29.51 in 10.0 mi ESE 5.8 mph - 0.02 in   Overcast
9:16 AM 51.8 °F 48.2 °F 88% 29.52 in 6.0 mi ESE 5.8 mph - N/A   Overcast
9:36 AM 51.8 °F 48.2 °F 88% 29.51 in 10.0 mi ESE 6.9 mph - N/A   Overcast
9:56 AM 51.8 °F 48.2 °F 88% 29.52 in 10.0 mi ESE 6.9 mph - N/A   Overcast
10:16 AM 53.6 °F 48.2 °F 82% 29.53 in 10.0 mi East 5.8 mph - N/A   Overcast
10:36 AM 53.6 °F 48.2 °F 82% 29.53 in 10.0 mi East 6.9 mph - N/A   Overcast
10:56 AM 53.6 °F 48.2 °F 82% 29.53 in 10.0 mi ENE 5.8 mph - N/A   Overcast
11:16 AM 53.6 °F 48.2 °F 82% 29.54 in 10.0 mi NE 4.6 mph - N/A   Overcast
11:36 AM 55.4 °F 48.2 °F 77% 29.54 in 10.0 mi East 6.9 mph - N/A   Overcast
11:56 AM 55.4 °F 48.2 °F 77% 29.54 in 10.0 mi East 5.8 mph - N/A   Overcast
12:16 PM 55.4 °F 48.2 °F 77% 29.55 in 10.0 mi Calm Calm - N/A   Overcast
12:36 PM 55.4 °F 48.2 °F 77% 29.56 in 10.0 mi Calm Calm - N/A   Overcast
12:56 PM 55.4 °F 48.2 °F 77% 29.56 in 10.0 mi Calm Calm - N/A   Overcast
1:16 PM 55.4 °F 48.2 °F 77% 29.56 in 10.0 mi Calm Calm - N/A   Overcast
1:36 PM 55.4 °F 48.2 °F 77% 29.57 in 10.0 mi Calm Calm - N/A   Overcast
1:56 PM 57.2 °F 48.2 °F 72% 29.57 in 10.0 mi NNW 5.8 mph - N/A   Overcast
2:16 PM 57.2 °F 48.2 °F 72% 29.57 in 10.0 mi NE 5.8 mph - N/A   Overcast
2:36 PM 57.2 °F 50.0 °F 77% 29.58 in 10.0 mi NNE 4.6 mph - N/A   Overcast
2:56 PM 59.0 °F 48.2 °F 67% 29.58 in 10.0 mi NE 10.4 mph - N/A   Overcast
3:16 PM 59.0 °F 48.2 °F 67% 29.58 in 10.0 mi ENE 8.1 mph - N/A   Overcast
3:36 PM 57.2 °F 51.8 °F 82% 29.58 in 10.0 mi NNW 13.8 mph 17.3 mph N/A   Overcast
3:56 PM 57.2 °F 51.8 °F 82% 29.59 in 10.0 mi NNW 13.8 mph - N/A   Overcast
4:16 PM 57.2 °F 51.8 °F 82% 29.59 in 10.0 mi NNW 15.0 mph - N/A   Overcast
4:36 PM 57.2 °F 51.8 °F 82% 29.60 in 10.0 mi NNW 13.8 mph - N/A   Overcast
4:56 PM 57.2 °F 51.8 °F 82% 29.61 in 10.0 mi NNW 15.0 mph - N/A   Overcast
5:16 PM 57.2 °F 51.8 °F 82% 29.61 in 8.0 mi NW 11.5 mph - N/A   Overcast
5:36 PM 57.2 °F 51.8 °F 82% 29.61 in 10.0 mi NNW 13.8 mph - N/A   Overcast
5:56 PM 59.0 °F 51.8 °F 77% 29.61 in 6.0 mi NNW 11.5 mph - N/A   Overcast
6:16 PM 57.2 °F 53.6 °F 88% 29.61 in 9.0 mi NNE 6.9 mph - N/A   Mostly Cloudy
6:36 PM 59.0 °F 53.6 °F 82% 29.62 in 10.0 mi NNW 11.5 mph - N/A   Overcast
6:56 PM 57.2 °F 51.8 °F 82% 29.63 in 8.0 mi NNW 9.2 mph - 0.07 in   Overcast
7:16 PM 57.2 °F 53.6 °F 88% 29.63 in 8.0 mi NNW 9.2 mph - 0.05 in   Mostly Cloudy
7:36 PM 57.2 °F 51.8 °F 82% 29.63 in 6.0 mi North 5.8 mph - 0.07 in   Overcast
7:56 PM 57.2 °F 53.6 °F 88% 29.64 in 10.0 mi Calm Calm - 0.07 in   Overcast
8:16 PM 57.2 °F 51.8 °F 82% 29.64 in 10.0 mi Calm Calm - N/A   Mostly Cloudy
8:36 PM 57.2 °F 51.8 °F 82% 29.64 in 10.0 mi Calm Calm - N/A   Mostly Cloudy
8:56 PM 57.2 °F 51.8 °F 82% 29.65 in 10.0 mi North 8.1 mph - N/A   Overcast
9:16 PM 57.2 °F 51.8 °F 82% 29.64 in 10.0 mi North 6.9 mph - N/A   Overcast
9:36 PM 57.2 °F 51.8 °F 82% 29.64 in 10.0 mi NNW 6.9 mph - N/A   Overcast
9:56 PM 55.4 °F 51.8 °F 88% 29.65 in 10.0 mi NNW 8.1 mph - N/A   Mostly Cloudy
10:16 PM 55.4 °F 50.0 °F 82% 29.65 in 10.0 mi NNW 4.6 mph - N/A   Mostly Cloudy
10:36 PM 55.4 °F 50.0 °F 82% 29.65 in 10.0 mi North 6.9 mph - N/A   Scattered Clouds
10:56 PM 55.4 °F 48.2 °F 77% 29.66 in 10.0 mi NNW 4.6 mph - N/A   Partly Cloudy
11:16 PM 55.4 °F 48.2 °F 77% 29.67 in 10.0 mi Calm Calm - N/A   Mostly Cloudy
11:36 PM 55.4 °F 48.2 °F 77% 29.67 in 10.0 mi Calm Calm - N/A   Mostly Cloudy
11:56 PM 53.6 °F 46.4 °F 77% 29.67 in 10.0 mi North - - N/A   Mostly Cloudy